sensor_id;sensor_type;location;lat;lon;timestamp;pressure;altitude;pressure_sealevel;temperature;humidity
19890;BME280;10107;51.198;6.824;2022-07-23T00:01:35;-21765.34;;;17.15;99.76
19890;BME280;10107;51.198;6.824;2022-07-23T00:05:37;-21763.53;;;17.08;99.91
19890;BME280;10107;51.198;6.824;2022-07-23T00:09:40;-21763.91;;;17.09;99.80
19890;BME280;10107;51.198;6.824;2022-07-23T00:13:42;-21765.50;;;17.15;100.00
19890;BME280;10107;51.198;6.824;2022-07-23T00:17:44;-21766.81;;;17.20;99.76
19890;BME280;10107;51.198;6.824;2022-07-23T00:21:46;-21769.28;;;17.30;100.00
19890;BME280;10107;51.198;6.824;2022-07-23T00:25:49;-21769.03;;;17.29;98.75
19890;BME280;10107;51.198;6.824;2022-07-23T00:29:51;-21768.91;;;17.29;99.77
19890;BME280;10107;51.198;6.824;2022-07-23T00:33:53;-21769.69;;;17.32;98.97
19890;BME280;10107;51.198;6.824;2022-07-23T00:37:57;-21769.28;;;17.30;99.27
19890;BME280;10107;51.198;6.824;2022-07-23T00:42:01;-21769.56;;;17.31;99.96
19890;BME280;10107;51.198;6.824;2022-07-23T00:46:03;-21769.69;;;17.32;99.72
19890;BME280;10107;51.198;6.824;2022-07-23T00:50:06;-21768.09;;;17.26;99.00
19890;BME280;10107;51.198;6.824;2022-07-23T00:54:09;-21767.31;;;17.22;99.79
19890;BME280;10107;51.198;6.824;2022-07-23T00:58:13;-21767.31;;;17.22;99.37
19890;BME280;10107;51.198;6.824;2022-07-23T01:02:15;-21767.44;;;17.23;99.72
19890;BME280;10107;51.198;6.824;2022-07-23T01:06:17;-21768.75;;;17.28;100.00
19890;BME280;10107;51.198;6.824;2022-07-23T01:10:19;-21768.09;;;17.26;100.00
19890;BME280;10107;51.198;6.824;2022-07-23T01:14:34;-21766.94;;;17.21;100.00
19890;BME280;10107;51.198;6.824;2022-07-23T01:18:36;-21765.75;;;17.16;100.00
19890;BME280;10107;51.198;6.824;2022-07-23T01:22:39;-21764.31;;;17.11;100.00
19890;BME280;10107;51.198;6.824;2022-07-23T01:26:43;-21763.78;;;17.09;100.00
19890;BME280;10107;51.198;6.824;2022-07-23T01:30:45;-21763.25;;;17.07;100.00
19890;BME280;10107;51.198;6.824;2022-07-23T01:34:47;-21762.34;;;17.03;100.00
19890;BME280;10107;51.198;6.824;2022-07-23T01:38:50;-21761.44;;;16.99;100.00
19890;BME280;10107;51.198;6.824;2022-07-23T01:42:52;-21759.59;;;16.92;100.00
19890;BME280;10107;51.198;6.824;2022-07-23T01:46:55;-21758.69;;;16.89;100.00
19890;BME280;10107;51.198;6.824;2022-07-23T01:50:57;-21758.16;;;16.87;100.00
19890;BME280;10107;51.198;6.824;2022-07-23T01:55:17;-21757.88;;;16.86;100.00
19890;BME280;10107;51.198;6.824;2022-07-23T01:59:20;-21757.38;;;16.83;100.00
19890;BME280;10107;51.198;6.824;2022-07-23T02:03:23;-21756.44;;;16.80;100.00
19890;BME280;10107;51.198;6.824;2022-07-23T02:07:25;-21754.75;;;16.73;100.00
19890;BME280;10107;51.198;6.824;2022-07-23T02:11:28;-21753.69;;;16.69;100.00
19890;BME280;10107;51.198;6.824;2022-07-23T02:15:31;-21752.78;;;16.66;100.00
19890;BME280;10107;51.198;6.824;2022-07-23T02:19:33;-21751.59;;;16.61;100.00
19890;BME280;10107;51.198;6.824;2022-07-23T02:23:36;-21750.16;;;16.55;100.00
19890;BME280;10107;51.198;6.824;2022-07-23T02:27:40;-21748.06;;;16.47;100.00
19890;BME280;10107;51.198;6.824;2022-07-23T02:31:43;-21747.13;;;16.43;100.00
19890;BME280;10107;51.198;6.824;2022-07-23T02:35:46;-21745.81;;;16.38;100.00
19890;BME280;10107;51.198;6.824;2022-07-23T02:39:49;-21744.78;;;16.34;100.00
19890;BME280;10107;51.198;6.824;2022-07-23T02:43:52;-21743.72;;;16.30;100.00
19890;BME280;10107;51.198;6.824;2022-07-23T02:47:55;-21742.66;;;16.26;100.00
19890;BME280;10107;51.198;6.824;2022-07-23T02:51:57;-21742.41;;;16.25;100.00
19890;BME280;10107;51.198;6.824;2022-07-23T02:56:00;-21742.41;;;16.25;100.00
19890;BME280;10107;51.198;6.824;2022-07-23T03:00:06;-21742.16;;;16.24;100.00
19890;BME280;10107;51.198;6.824;2022-07-23T03:04:08;-21740.97;;;16.19;100.00
19890;BME280;10107;51.198;6.824;2022-07-23T03:08:09;-21739.25;;;16.13;100.00
19890;BME280;10107;51.198;6.824;2022-07-23T03:12:14;-21738.22;;;16.09;100.00
19890;BME280;10107;51.198;6.824;2022-07-23T03:16:18;-21736.91;;;16.03;100.00
19890;BME280;10107;51.198;6.824;2022-07-23T03:20:19;-21735.31;;;15.97;100.00
19890;BME280;10107;51.198;6.824;2022-07-23T03:24:21;-21733.88;;;15.92;100.00
19890;BME280;10107;51.198;6.824;2022-07-23T03:28:24;-21732.97;;;15.88;100.00
19890;BME280;10107;51.198;6.824;2022-07-23T03:32:27;-21732.81;;;15.88;100.00
19890;BME280;10107;51.198;6.824;2022-07-23T03:36:30;-21732.03;;;15.84;100.00
19890;BME280;10107;51.198;6.824;2022-07-23T03:40:32;-21730.59;;;15.79;100.00
19890;BME280;10107;51.198;6.824;2022-07-23T03:44:34;-21729.81;;;15.76;100.00
19890;BME280;10107;51.198;6.824;2022-07-23T03:48:38;-21729.94;;;15.76;100.00
19890;BME280;10107;51.198;6.824;2022-07-23T03:52:40;-21730.06;;;15.77;100.00
19890;BME280;10107;51.198;6.824;2022-07-23T03:56:42;-21730.59;;;15.79;100.00
19890;BME280;10107;51.198;6.824;2022-07-23T04:00:44;-21731.00;;;15.80;100.00
19890;BME280;10107;51.198;6.824;2022-07-23T04:04:50;-21732.16;;;15.85;100.00
19890;BME280;10107;51.198;6.824;2022-07-23T04:08:52;-21733.34;;;15.90;100.00
19890;BME280;10107;51.198;6.824;2022-07-23T04:12:54;-21734.13;;;15.93;100.00
19890;BME280;10107;51.198;6.824;2022-07-23T04:16:56;-21734.53;;;15.94;100.00
19890;BME280;10107;51.198;6.824;2022-07-23T04:20:59;-21736.63;;;16.02;100.00
19890;BME280;10107;51.198;6.824;2022-07-23T04:25:02;-21740.03;;;16.16;100.00
19890;BME280;10107;51.198;6.824;2022-07-23T04:29:05;-21742.41;;;16.25;100.00
19890;BME280;10107;51.198;6.824;2022-07-23T04:33:07;-21745.03;;;16.35;100.00
19890;BME280;10107;51.198;6.824;2022-07-23T04:37:13;-21748.56;;;16.49;100.00
19890;BME280;10107;51.198;6.824;2022-07-23T04:41:14;-21751.47;;;16.60;100.00
19890;BME280;10107;51.198;6.824;2022-07-23T04:45:17;-21755.78;;;16.77;100.00
19890;BME280;10107;51.198;6.824;2022-07-23T04:49:19;-21759.72;;;16.93;100.00
19890;BME280;10107;51.198;6.824;2022-07-23T04:53:23;-21764.31;;;17.11;100.00
19890;BME280;10107;51.198;6.824;2022-07-23T04:57:27;-21768.63;;;17.28;100.00
19890;BME280;10107;51.198;6.824;2022-07-23T05:01:29;-21773.75;;;17.48;99.79
19890;BME280;10107;51.198;6.824;2022-07-23T05:05:31;-21780.28;;;17.73;98.15
19890;BME280;10107;51.198;6.824;2022-07-23T05:09:43;-21786.44;;;17.97;96.11
19890;BME280;10107;51.198;6.824;2022-07-23T05:13:46;-21795.06;;;18.31;94.60
19890;BME280;10107;51.198;6.824;2022-07-23T05:17:48;-21828.50;;;19.63;87.78
19890;BME280;10107;51.198;6.824;2022-07-23T05:21:51;-21864.34;;;21.04;79.39
19890;BME280;10107;51.198;6.824;2022-07-23T05:25:54;-21888.91;;;22.01;74.73
19890;BME280;10107;51.198;6.824;2022-07-23T05:29:56;-21907.34;;;22.73;69.41
19890;BME280;10107;51.198;6.824;2022-07-23T05:33:59;-21923.56;;;23.38;67.04
19890;BME280;10107;51.198;6.824;2022-07-23T05:38:01;-21941.44;;;24.08;63.64
19890;BME280;10107;51.198;6.824;2022-07-23T05:42:07;-21958.88;;;24.78;61.21
19890;BME280;10107;51.198;6.824;2022-07-23T05:46:09;-21972.59;;;25.32;59.52
19890;BME280;10107;51.198;6.824;2022-07-23T05:50:15;-21985.22;;;25.82;57.27
19890;BME280;10107;51.198;6.824;2022-07-23T05:54:21;-22001.59;;;26.47;54.52
19890;BME280;10107;51.198;6.824;2022-07-23T05:58:24;-22016.78;;;27.08;51.51
19890;BME280;10107;51.198;6.824;2022-07-23T06:02:26;-22031.81;;;27.68;50.40
19890;BME280;10107;51.198;6.824;2022-07-23T06:06:28;-22047.09;;;28.29;48.18
19890;BME280;10107;51.198;6.824;2022-07-23T06:10:31;-22067.63;;;29.11;46.50
19890;BME280;10107;51.198;6.824;2022-07-23T06:14:34;-22080.94;;;29.65;44.45
19890;BME280;10107;51.198;6.824;2022-07-23T06:18:36;-22087.72;;;29.92;43.47
19890;BME280;10107;51.198;6.824;2022-07-23T06:22:38;-22104.34;;;30.58;42.32
19890;BME280;10107;51.198;6.824;2022-07-23T06:26:40;-22121.19;;;31.26;40.70
19890;BME280;10107;51.198;6.824;2022-07-23T06:30:43;-22140.31;;;32.03;38.72
19890;BME280;10107;51.198;6.824;2022-07-23T06:34:45;-22155.47;;;32.64;37.65
19890;BME280;10107;51.198;6.824;2022-07-23T06:38:47;-22171.34;;;33.28;35.18
19890;BME280;10107;51.198;6.824;2022-07-23T06:42:48;-22182.91;;;33.75;34.72
19890;BME280;10107;51.198;6.824;2022-07-23T06:46:57;-22207.50;;;34.75;33.79
19890;BME280;10107;51.198;6.824;2022-07-23T06:50:59;-22210.16;;;34.85;32.53
19890;BME280;10107;51.198;6.824;2022-07-23T06:55:01;-22219.25;;;35.22;32.69
19890;BME280;10107;51.198;6.824;2022-07-23T06:59:03;-22235.19;;;35.87;31.71
19890;BME280;10107;51.198;6.824;2022-07-23T07:03:06;-22257.88;;;36.79;30.26
19890;BME280;10107;51.198;6.824;2022-07-23T07:07:08;-22280.31;;;37.71;28.15
19890;BME280;10107;51.198;6.824;2022-07-23T07:11:10;-22289.34;;;38.08;27.53
19890;BME280;10107;51.198;6.824;2022-07-23T07:15:12;-22248.44;;;36.41;29.60
19890;BME280;10107;51.198;6.824;2022-07-23T07:19:15;-22262.16;;;36.97;28.25
19890;BME280;10107;51.198;6.824;2022-07-23T07:23:17;-22276.41;;;37.55;27.90
19890;BME280;10107;51.198;6.824;2022-07-23T07:27:19;-22253.34;;;36.61;29.26
19890;BME280;10107;51.198;6.824;2022-07-23T07:31:21;-22280.56;;;37.72;27.47
19890;BME280;10107;51.198;6.824;2022-07-23T07:35:24;-22317.34;;;39.22;25.69
19890;BME280;10107;51.198;6.824;2022-07-23T07:39:27;-22342.50;;;40.25;24.00
19890;BME280;10107;51.198;6.824;2022-07-23T07:43:29;-22291.50;;;38.16;25.63
19890;BME280;10107;51.198;6.824;2022-07-23T07:47:31;-22237.06;;;35.95;27.75
19890;BME280;10107;51.198;6.824;2022-07-23T07:51:34;-22241.00;;;36.11;28.76
19890;BME280;10107;51.198;6.824;2022-07-23T07:55:36;-22260.66;;;36.91;26.73
19890;BME280;10107;51.198;6.824;2022-07-23T07:59:38;-22277.66;;;37.60;27.14
19890;BME280;10107;51.198;6.824;2022-07-23T08:03:40;-22252.34;;;36.57;27.83
19890;BME280;10107;51.198;6.824;2022-07-23T08:07:43;-22217.09;;;35.14;29.21
19890;BME280;10107;51.198;6.824;2022-07-23T08:11:45;-22169.94;;;33.23;33.05
19890;BME280;10107;51.198;6.824;2022-07-23T08:15:47;-22139.53;;;32.00;34.06
19890;BME280;10107;51.198;6.824;2022-07-23T08:19:48;-22168.94;;;33.19;32.36
19890;BME280;10107;51.198;6.824;2022-07-23T08:23:51;-22188.97;;;34.00;30.61
19890;BME280;10107;51.198;6.824;2022-07-23T08:27:54;-22171.97;;;33.31;31.19
19890;BME280;10107;51.198;6.824;2022-07-23T08:31:56;-22185.31;;;33.85;30.26
19890;BME280;10107;51.198;6.824;2022-07-23T08:35:58;-22147.19;;;32.31;32.56
19890;BME280;10107;51.198;6.824;2022-07-23T08:40:02;-22169.19;;;33.20;33.10
19890;BME280;10107;51.198;6.824;2022-07-23T08:44:07;-22201.28;;;34.49;30.04
19890;BME280;10107;51.198;6.824;2022-07-23T08:48:12;-22176.94;;;33.51;30.29
19890;BME280;10107;51.198;6.824;2022-07-23T08:52:14;-22211.28;;;34.90;28.75
19890;BME280;10107;51.198;6.824;2022-07-23T08:56:18;-22212.41;;;34.95;28.64
19890;BME280;10107;51.198;6.824;2022-07-23T09:00:21;-22243.75;;;36.22;27.84
19890;BME280;10107;51.198;6.824;2022-07-23T09:04:23;-22265.06;;;37.09;25.73
19890;BME280;10107;51.198;6.824;2022-07-23T09:08:25;-22262.69;;;36.99;25.52
19890;BME280;10107;51.198;6.824;2022-07-23T09:12:37;-22221.91;;;35.33;28.34
19890;BME280;10107;51.198;6.824;2022-07-23T09:16:38;-22242.75;;;36.18;26.61
19890;BME280;10107;51.198;6.824;2022-07-23T09:20:40;-22249.81;;;36.46;26.28
19890;BME280;10107;51.198;6.824;2022-07-23T09:25:02;-22251.06;;;36.52;26.35
19890;BME280;10107;51.198;6.824;2022-07-23T09:29:10;-22276.41;;;37.55;23.96
19890;BME280;10107;51.198;6.824;2022-07-23T09:33:14;-22290.09;;;38.11;24.16
19890;BME280;10107;51.198;6.824;2022-07-23T09:37:18;-22286.09;;;37.94;23.40
19890;BME280;10107;51.198;6.824;2022-07-23T09:41:20;-22276.78;;;37.56;24.78
19890;BME280;10107;51.198;6.824;2022-07-23T09:45:23;-22281.31;;;37.75;24.75
19890;BME280;10107;51.198;6.824;2022-07-23T09:49:25;-22282.56;;;37.80;23.09
19890;BME280;10107;51.198;6.824;2022-07-23T09:53:27;-22292.75;;;38.21;23.92
19890;BME280;10107;51.198;6.824;2022-07-23T09:57:29;-22306.94;;;38.79;23.59
19890;BME280;10107;51.198;6.824;2022-07-23T10:01:34;-22319.47;;;39.31;22.89
19890;BME280;10107;51.198;6.824;2022-07-23T10:05:37;-22321.22;;;39.38;21.91
19890;BME280;10107;51.198;6.824;2022-07-23T10:09:58;-22325.72;;;39.56;22.82
19890;BME280;10107;51.198;6.824;2022-07-23T10:14:38;-22318.97;;;39.29;22.44
19890;BME280;10107;51.198;6.824;2022-07-23T10:18:44;-22320.84;;;39.36;21.08
19890;BME280;10107;51.198;6.824;2022-07-23T10:22:52;-22326.13;;;39.58;21.00
19890;BME280;10107;51.198;6.824;2022-07-23T10:27:07;-22339.75;;;40.14;20.71
19890;BME280;10107;51.198;6.824;2022-07-23T10:31:25;-22331.25;;;39.79;21.82
19890;BME280;10107;51.198;6.824;2022-07-23T10:35:43;-22308.19;;;38.85;21.54
19890;BME280;10107;51.198;6.824;2022-07-23T10:39:48;-22288.34;;;38.03;22.43
19890;BME280;10107;51.198;6.824;2022-07-23T10:44:11;-22276.03;;;37.53;21.68
19890;BME280;10107;51.198;6.824;2022-07-23T10:48:18;-22268.72;;;37.23;22.98
19890;BME280;10107;51.198;6.824;2022-07-23T10:52:26;-22287.09;;;37.98;23.36
19890;BME280;10107;51.198;6.824;2022-07-23T10:56:50;-22263.44;;;37.02;23.66
19890;BME280;10107;51.198;6.824;2022-07-23T11:01:31;-22271.63;;;37.35;23.96
19890;BME280;10107;51.198;6.824;2022-07-23T11:05:41;-22276.53;;;37.55;22.80
19890;BME280;10107;51.198;6.824;2022-07-23T11:09:45;-22280.31;;;37.71;23.11
19890;BME280;10107;51.198;6.824;2022-07-23T11:13:49;-22306.94;;;38.79;21.85
19890;BME280;10107;51.198;6.824;2022-07-23T11:17:59;-22326.72;;;39.60;21.23
19890;BME280;10107;51.198;6.824;2022-07-23T11:22:01;-22344.88;;;40.35;21.07
19890;BME280;10107;51.198;6.824;2022-07-23T11:26:05;-22352.25;;;40.65;19.64
19890;BME280;10107;51.198;6.824;2022-07-23T11:30:09;-22351.25;;;40.61;19.10
19890;BME280;10107;51.198;6.824;2022-07-23T11:34:30;-22347.00;;;40.44;19.65
19890;BME280;10107;51.198;6.824;2022-07-23T11:38:32;-22348.25;;;40.49;19.81
19890;BME280;10107;51.198;6.824;2022-07-23T11:42:37;-22344.38;;;40.33;20.03
19890;BME280;10107;51.198;6.824;2022-07-23T11:46:39;-22345.25;;;40.36;19.84
19890;BME280;10107;51.198;6.824;2022-07-23T11:50:41;-22342.88;;;40.27;19.81
19890;BME280;10107;51.198;6.824;2022-07-23T11:54:47;-22337.88;;;40.06;19.65
19890;BME280;10107;51.198;6.824;2022-07-23T11:58:55;-22334.38;;;39.92;20.29
19890;BME280;10107;51.198;6.824;2022-07-23T12:03:00;-22336.50;;;40.01;20.32
19890;BME280;10107;51.198;6.824;2022-07-23T12:07:27;-22328.38;;;39.67;20.93
19890;BME280;10107;51.198;6.824;2022-07-23T12:11:30;-22324.09;;;39.50;20.11
19890;BME280;10107;51.198;6.824;2022-07-23T12:15:34;-22314.97;;;39.12;19.79
19890;BME280;10107;51.198;6.824;2022-07-23T12:19:38;-22304.94;;;38.71;21.28
19890;BME280;10107;51.198;6.824;2022-07-23T12:23:41;-22300.66;;;38.54;21.85
19890;BME280;10107;51.198;6.824;2022-07-23T12:27:44;-22299.91;;;38.51;20.58
19890;BME280;10107;51.198;6.824;2022-07-23T12:31:47;-22293.63;;;38.25;20.71
19890;BME280;10107;51.198;6.824;2022-07-23T12:35:50;-22278.16;;;37.62;21.65
19890;BME280;10107;51.198;6.824;2022-07-23T12:39:53;-22267.59;;;37.19;22.00
19890;BME280;10107;51.198;6.824;2022-07-23T12:43:55;-22262.94;;;37.00;22.24
19890;BME280;10107;51.198;6.824;2022-07-23T12:48:04;-22250.69;;;36.50;23.06
19890;BME280;10107;51.198;6.824;2022-07-23T12:52:15;-22246.41;;;36.33;23.27
19890;BME280;10107;51.198;6.824;2022-07-23T12:56:21;-22235.44;;;35.88;23.75
19890;BME280;10107;51.198;6.824;2022-07-23T13:00:23;-22230.13;;;35.66;24.85
19890;BME280;10107;51.198;6.824;2022-07-23T13:04:27;-22220.28;;;35.26;24.51
19890;BME280;10107;51.198;6.824;2022-07-23T13:08:30;-22212.28;;;34.94;24.51
19890;BME280;10107;51.198;6.824;2022-07-23T13:12:32;-22205.72;;;34.67;25.03
19890;BME280;10107;51.198;6.824;2022-07-23T13:16:34;-22212.28;;;34.94;25.28
19890;BME280;10107;51.198;6.824;2022-07-23T13:20:37;-22215.72;;;35.08;24.81
19890;BME280;10107;51.198;6.824;2022-07-23T13:24:40;-22205.06;;;34.65;25.73
19890;BME280;10107;51.198;6.824;2022-07-23T13:28:41;-22209.75;;;34.84;26.56
19890;BME280;10107;51.198;6.824;2022-07-23T13:32:43;-22206.34;;;34.70;25.34
19890;BME280;10107;51.198;6.824;2022-07-23T13:36:46;-22205.59;;;34.67;25.75
19890;BME280;10107;51.198;6.824;2022-07-23T13:40:50;-22180.22;;;33.64;26.73
19890;BME280;10107;51.198;6.824;2022-07-23T13:44:52;-22154.06;;;32.59;27.93
19890;BME280;10107;51.198;6.824;2022-07-23T13:48:53;-22158.25;;;32.75;27.83
19890;BME280;10107;51.198;6.824;2022-07-23T13:52:57;-22161.31;;;32.88;27.65
19890;BME280;10107;51.198;6.824;2022-07-23T13:57:01;-22159.28;;;32.80;26.98
19890;BME280;10107;51.198;6.824;2022-07-23T14:01:03;-22157.63;;;32.73;27.92
19890;BME280;10107;51.198;6.824;2022-07-23T14:05:06;-22131.00;;;31.66;28.78
19890;BME280;10107;51.198;6.824;2022-07-23T14:09:11;-22113.78;;;30.96;29.46
19890;BME280;10107;51.198;6.824;2022-07-23T14:13:12;-22125.78;;;31.45;29.84
19890;BME280;10107;51.198;6.824;2022-07-23T14:17:14;-22132.03;;;31.70;29.40
19890;BME280;10107;51.198;6.824;2022-07-23T14:21:16;-22136.63;;;31.88;27.80
19890;BME280;10107;51.198;6.824;2022-07-23T14:25:19;-22137.00;;;31.90;28.53
19890;BME280;10107;51.198;6.824;2022-07-23T14:29:21;-22141.06;;;32.06;29.14
19890;BME280;10107;51.198;6.824;2022-07-23T14:33:27;-22139.69;;;32.01;29.02
19890;BME280;10107;51.198;6.824;2022-07-23T14:37:33;-22129.47;;;31.60;28.13
19890;BME280;10107;51.198;6.824;2022-07-23T14:41:36;-22122.47;;;31.31;29.34
19890;BME280;10107;51.198;6.824;2022-07-23T14:45:38;-22121.97;;;31.29;30.09
19890;BME280;10107;51.198;6.824;2022-07-23T14:49:40;-22121.31;;;31.27;30.57
19890;BME280;10107;51.198;6.824;2022-07-23T14:53:41;-22125.78;;;31.45;30.41
19890;BME280;10107;51.198;6.824;2022-07-23T14:57:45;-22127.31;;;31.51;29.91
19890;BME280;10107;51.198;6.824;2022-07-23T15:01:47;-22128.34;;;31.55;29.45
19890;BME280;10107;51.198;6.824;2022-07-23T15:05:49;-22129.09;;;31.58;29.41
19890;BME280;10107;51.198;6.824;2022-07-23T15:09:51;-22130.50;;;31.64;29.84
19890;BME280;10107;51.198;6.824;2022-07-23T15:13:55;-22127.94;;;31.53;29.13
19890;BME280;10107;51.198;6.824;2022-07-23T15:17:56;-22119.78;;;31.21;30.88
19890;BME280;10107;51.198;6.824;2022-07-23T15:21:58;-22111.75;;;30.88;30.29
19890;BME280;10107;51.198;6.824;2022-07-23T15:26:01;-22102.44;;;30.51;30.38
19890;BME280;10107;51.198;6.824;2022-07-23T15:30:05;-22094.88;;;30.20;31.50
19890;BME280;10107;51.198;6.824;2022-07-23T15:34:08;-22091.81;;;30.08;31.67
19890;BME280;10107;51.198;6.824;2022-07-23T15:38:09;-22089.63;;;29.99;31.54
19890;BME280;10107;51.198;6.824;2022-07-23T15:42:11;-22092.97;;;30.13;31.85
19890;BME280;10107;51.198;6.824;2022-07-23T15:46:16;-22087.97;;;29.93;32.19
19890;BME280;10107;51.198;6.824;2022-07-23T15:50:18;-22077.88;;;29.52;32.47
19890;BME280;10107;51.198;6.824;2022-07-23T15:54:19;-22079.66;;;29.59;31.94
19890;BME280;10107;51.198;6.824;2022-07-23T15:58:21;-22077.22;;;29.50;32.18
19890;BME280;10107;51.198;6.824;2022-07-23T16:02:25;-22077.09;;;29.49;32.40
19890;BME280;10107;51.198;6.824;2022-07-23T16:06:26;-22074.53;;;29.39;32.50
19890;BME280;10107;51.198;6.824;2022-07-23T16:10:28;-22064.69;;;28.99;33.30
19890;BME280;10107;51.198;6.824;2022-07-23T16:14:30;-22053.13;;;28.53;34.04
19890;BME280;10107;51.198;6.824;2022-07-23T16:18:33;-22046.22;;;28.26;34.21
19890;BME280;10107;51.198;6.824;2022-07-23T16:22:35;-22042.47;;;28.11;35.07
19890;BME280;10107;51.198;6.824;2022-07-23T16:26:37;-22049.53;;;28.39;34.80
19890;BME280;10107;51.198;6.824;2022-07-23T16:30:39;-22052.25;;;28.50;34.67
19890;BME280;10107;51.198;6.824;2022-07-23T16:34:43;-22047.22;;;28.30;34.56
19890;BME280;10107;51.198;6.824;2022-07-23T16:38:45;-22040.94;;;28.04;34.92
19890;BME280;10107;51.198;6.824;2022-07-23T16:42:47;-22036.31;;;27.86;34.70
19890;BME280;10107;51.198;6.824;2022-07-23T16:46:49;-22033.09;;;27.73;34.97
19890;BME280;10107;51.198;6.824;2022-07-23T16:50:52;-22030.78;;;27.64;36.15
19890;BME280;10107;51.198;6.824;2022-07-23T16:54:54;-22030.16;;;27.61;35.04
19890;BME280;10107;51.198;6.824;2022-07-23T16:58:56;-22032.09;;;27.69;35.95
19890;BME280;10107;51.198;6.824;2022-07-23T17:02:58;-22029.13;;;27.57;35.07
19890;BME280;10107;51.198;6.824;2022-07-23T17:07:01;-22024.38;;;27.38;36.12
19890;BME280;10107;51.198;6.824;2022-07-23T17:11:05;-22024.00;;;27.37;35.69
19890;BME280;10107;51.198;6.824;2022-07-23T17:15:07;-22018.72;;;27.16;35.96
19890;BME280;10107;51.198;6.824;2022-07-23T17:19:09;-22017.81;;;27.12;36.55
19890;BME280;10107;51.198;6.824;2022-07-23T17:23:14;-22015.50;;;27.03;35.80
19890;BME280;10107;51.198;6.824;2022-07-23T17:27:16;-22013.81;;;26.96;36.26
19890;BME280;10107;51.198;6.824;2022-07-23T17:31:18;-22014.22;;;26.98;36.23
19890;BME280;10107;51.198;6.824;2022-07-23T17:35:20;-22014.72;;;27.00;36.50
19890;BME280;10107;51.198;6.824;2022-07-23T17:39:23;-22013.69;;;26.96;36.77
19890;BME280;10107;51.198;6.824;2022-07-23T17:43:25;-22013.94;;;26.97;37.15
19890;BME280;10107;51.198;6.824;2022-07-23T17:47:27;-22012.03;;;26.89;36.69
19890;BME280;10107;51.198;6.824;2022-07-23T17:51:29;-22007.25;;;26.70;36.38
19890;BME280;10107;51.198;6.824;2022-07-23T17:55:33;-22005.06;;;26.61;37.13
19890;BME280;10107;51.198;6.824;2022-07-23T17:59:35;-21999.78;;;26.40;37.32
19890;BME280;10107;51.198;6.824;2022-07-23T18:03:38;-21995.53;;;26.23;37.65
19890;BME280;10107;51.198;6.824;2022-07-23T18:07:40;-21991.66;;;26.08;38.26
19890;BME280;10107;51.198;6.824;2022-07-23T18:11:43;-21995.28;;;26.22;38.20
19890;BME280;10107;51.198;6.824;2022-07-23T18:15:45;-22023.59;;;27.35;36.16
19890;BME280;10107;51.198;6.824;2022-07-23T18:19:47;-22023.59;;;27.35;35.90
19890;BME280;10107;51.198;6.824;2022-07-23T18:23:49;-22009.97;;;26.81;37.54
19890;BME280;10107;51.198;6.824;2022-07-23T18:27:52;-21996.31;;;26.26;37.49
19890;BME280;10107;51.198;6.824;2022-07-23T18:31:54;-21986.25;;;25.86;38.31
19890;BME280;10107;51.198;6.824;2022-07-23T18:35:56;-21979.03;;;25.58;38.67
19890;BME280;10107;51.198;6.824;2022-07-23T18:39:58;-21973.47;;;25.36;39.42
19890;BME280;10107;51.198;6.824;2022-07-23T18:44:02;-21969.34;;;25.19;39.79
19890;BME280;10107;51.198;6.824;2022-07-23T18:48:05;-21965.47;;;25.04;40.01
19890;BME280;10107;51.198;6.824;2022-07-23T18:52:07;-21962.13;;;24.90;40.64
19890;BME280;10107;51.198;6.824;2022-07-23T18:56:09;-21958.63;;;24.77;41.45
19890;BME280;10107;51.198;6.824;2022-07-23T19:00:13;-21955.66;;;24.65;42.06
19890;BME280;10107;51.198;6.824;2022-07-23T19:04:15;-21952.56;;;24.53;42.50
19890;BME280;10107;51.198;6.824;2022-07-23T19:08:17;-21948.81;;;24.38;43.06
19890;BME280;10107;51.198;6.824;2022-07-23T19:12:19;-21944.78;;;24.22;43.75
19890;BME280;10107;51.198;6.824;2022-07-23T19:16:23;-21941.69;;;24.09;44.42
19890;BME280;10107;51.198;6.824;2022-07-23T19:20:25;-21938.19;;;23.96;45.17
19890;BME280;10107;51.198;6.824;2022-07-23T19:24:27;-21934.97;;;23.83;45.88
19890;BME280;10107;51.198;6.824;2022-07-23T19:28:29;-21931.59;;;23.69;46.38
19890;BME280;10107;51.198;6.824;2022-07-23T19:32:32;-21928.22;;;23.56;46.97
19890;BME280;10107;51.198;6.824;2022-07-23T19:36:34;-21925.00;;;23.43;47.24
19890;BME280;10107;51.198;6.824;2022-07-23T19:40:36;-21922.41;;;23.33;47.99
19890;BME280;10107;51.198;6.824;2022-07-23T19:44:38;-21918.75;;;23.19;48.94
19890;BME280;10107;51.198;6.824;2022-07-23T19:48:42;-21915.41;;;23.05;49.14
19890;BME280;10107;51.198;6.824;2022-07-23T19:52:44;-21912.41;;;22.93;50.15
19890;BME280;10107;51.198;6.824;2022-07-23T19:56:46;-21908.53;;;22.78;51.50
19890;BME280;10107;51.198;6.824;2022-07-23T20:00:48;-21904.13;;;22.61;52.63
19890;BME280;10107;51.198;6.824;2022-07-23T20:04:51;-21899.31;;;22.42;53.90
19890;BME280;10107;51.198;6.824;2022-07-23T20:08:53;-21895.16;;;22.25;54.85
19890;BME280;10107;51.198;6.824;2022-07-23T20:12:55;-21891.38;;;22.10;56.02
19890;BME280;10107;51.198;6.824;2022-07-23T20:16:56;-21888.66;;;22.00;56.35
19890;BME280;10107;51.198;6.824;2022-07-23T20:21:00;-21885.16;;;21.86;57.51
19890;BME280;10107;51.198;6.824;2022-07-23T20:25:02;-21882.41;;;21.75;58.25
19890;BME280;10107;51.198;6.824;2022-07-23T20:29:04;-21879.03;;;21.62;59.31
19890;BME280;10107;51.198;6.824;2022-07-23T20:33:06;-21875.78;;;21.49;60.19
19890;BME280;10107;51.198;6.824;2022-07-23T20:37:09;-21873.84;;;21.41;60.65
19890;BME280;10107;51.198;6.824;2022-07-23T20:41:11;-21872.03;;;21.34;61.39
19890;BME280;10107;51.198;6.824;2022-07-23T20:45:13;-21870.06;;;21.26;62.39
19890;BME280;10107;51.198;6.824;2022-07-23T20:49:15;-21867.84;;;21.17;63.25
19890;BME280;10107;51.198;6.824;2022-07-23T20:53:19;-21865.66;;;21.09;63.73
19890;BME280;10107;51.198;6.824;2022-07-23T20:57:21;-21863.44;;;21.00;63.98
19890;BME280;10107;51.198;6.824;2022-07-23T21:01:23;-21862.00;;;20.94;63.94
19890;BME280;10107;51.198;6.824;2022-07-23T21:05:25;-21861.63;;;20.93;64.64
19890;BME280;10107;51.198;6.824;2022-07-23T21:09:28;-21859.66;;;20.85;65.11